UKOO/ODS METAR and TAF weather

Enter ICAO airport designator
Station Type Date Time Source
UKOO METAR 2021/08/05 03:30 UTC NOAA

UKOO 050330Z 10002MPS CAVOK 23/22 Q1014 R34/090095 NOSIG


Station Type Date Time Source
UKOO Decoded METAR 2021/08/05 03:30 UTC NOAA

Odesa, Ukraine (UKOO) 46-26N 030-46E 42M
Aug 04, 2021 - 11:30 PM EDT / 2021.08.05 0330 UTC
Wind: from the E (100 degrees) at 4 MPH (4 KT):0
Visibility: greater than 7 mile(s):0
Temperature: 73 F (23 C)
Dew Point: 71 F (22 C)
Relative Humidity: 94%
Pressure (altimeter): 29.94 in. Hg (1014 hPa)
ob: UKOO 050330Z 10002MPS CAVOK 23/22 Q1014 R34/090095 NOSIG
cycle: 3

Station Type Date Time Source
UKOO TAF 2021/08/04 19:36 UTC NOAA

TAF TAF
AMD UKOO 041928Z 0419/0518 19003MPS 2100 BR SCT015 SCT020CB TX29/0512Z TN20/0502Z
TEMPO 0419/0505 VRB09G16MPS 1000 TSRAGR BKN003 BKN020CB
BECMG 0505/0506 16006G12MPS 6000 NSW

Example: see airport list